sensor_id;sensor_type;location;lat;lon;timestamp;temperature;humidity
14409;DHT22;7289;50.706;4.992;2022-07-10T00:00:08;13.80;98.80
14409;DHT22;7289;50.706;4.992;2022-07-10T00:02:41;13.70;98.90
14409;DHT22;7289;50.706;4.992;2022-07-10T00:05:11;13.70;98.90
14409;DHT22;7289;50.706;4.992;2022-07-10T00:07:46;13.60;99.10
14409;DHT22;7289;50.706;4.992;2022-07-10T00:10:15;13.50;99.10
14409;DHT22;7289;50.706;4.992;2022-07-10T00:12:44;13.50;99.30
14409;DHT22;7289;50.706;4.992;2022-07-10T00:15:13;13.40;99.50
14409;DHT22;7289;50.706;4.992;2022-07-10T00:17:41;13.40;99.60
14409;DHT22;7289;50.706;4.992;2022-07-10T00:20:12;13.30;99.70
14409;DHT22;7289;50.706;4.992;2022-07-10T00:22:41;13.30;99.90
14409;DHT22;7289;50.706;4.992;2022-07-10T00:25:11;13.20;99.90
14409;DHT22;7289;50.706;4.992;2022-07-10T00:27:41;13.20;99.90
14409;DHT22;7289;50.706;4.992;2022-07-10T00:30:10;13.20;99.90
14409;DHT22;7289;50.706;4.992;2022-07-10T00:32:38;13.20;99.90
14409;DHT22;7289;50.706;4.992;2022-07-10T00:35:07;13.10;99.90
14409;DHT22;7289;50.706;4.992;2022-07-10T00:37:37;13.00;99.90
14409;DHT22;7289;50.706;4.992;2022-07-10T00:40:06;13.00;99.90
14409;DHT22;7289;50.706;4.992;2022-07-10T00:42:34;13.00;99.90
14409;DHT22;7289;50.706;4.992;2022-07-10T00:45:03;13.00;99.90
14409;DHT22;7289;50.706;4.992;2022-07-10T00:47:32;13.00;99.90
14409;DHT22;7289;50.706;4.992;2022-07-10T00:50:00;12.90;99.90
14409;DHT22;7289;50.706;4.992;2022-07-10T00:52:28;12.90;99.90
14409;DHT22;7289;50.706;4.992;2022-07-10T00:54:59;12.90;99.90
14409;DHT22;7289;50.706;4.992;2022-07-10T00:57:27;12.80;99.90
14409;DHT22;7289;50.706;4.992;2022-07-10T00:59:55;12.80;99.90
14409;DHT22;7289;50.706;4.992;2022-07-10T01:02:24;12.80;99.90
14409;DHT22;7289;50.706;4.992;2022-07-10T01:04:52;12.70;99.90
14409;DHT22;7289;50.706;4.992;2022-07-10T01:07:21;12.70;99.90
14409;DHT22;7289;50.706;4.992;2022-07-10T01:09:51;12.70;99.90
14409;DHT22;7289;50.706;4.992;2022-07-10T01:12:21;12.60;99.90
14409;DHT22;7289;50.706;4.992;2022-07-10T01:14:49;12.60;99.90
14409;DHT22;7289;50.706;4.992;2022-07-10T01:17:17;12.60;99.90
14409;DHT22;7289;50.706;4.992;2022-07-10T01:19:46;12.50;99.90
14409;DHT22;7289;50.706;4.992;2022-07-10T01:22:16;12.50;99.90
14409;DHT22;7289;50.706;4.992;2022-07-10T01:24:44;12.40;99.90
14409;DHT22;7289;50.706;4.992;2022-07-10T01:27:12;12.40;99.90
14409;DHT22;7289;50.706;4.992;2022-07-10T01:29:40;12.30;99.90
14409;DHT22;7289;50.706;4.992;2022-07-10T01:32:09;12.30;99.90
14409;DHT22;7289;50.706;4.992;2022-07-10T01:34:37;12.30;99.90
14409;DHT22;7289;50.706;4.992;2022-07-10T01:37:06;12.30;99.90
14409;DHT22;7289;50.706;4.992;2022-07-10T01:39:36;12.20;99.90
14409;DHT22;7289;50.706;4.992;2022-07-10T01:42:04;12.20;99.90
14409;DHT22;7289;50.706;4.992;2022-07-10T01:44:33;12.20;99.90
14409;DHT22;7289;50.706;4.992;2022-07-10T01:47:01;12.20;99.90
14409;DHT22;7289;50.706;4.992;2022-07-10T01:49:29;12.10;99.90
14409;DHT22;7289;50.706;4.992;2022-07-10T01:51:58;12.10;99.90
14409;DHT22;7289;50.706;4.992;2022-07-10T01:54:26;12.10;99.90
14409;DHT22;7289;50.706;4.992;2022-07-10T01:56:56;12.00;99.90
14409;DHT22;7289;50.706;4.992;2022-07-10T01:59:24;12.00;99.90
14409;DHT22;7289;50.706;4.992;2022-07-10T02:01:52;11.90;99.90
14409;DHT22;7289;50.706;4.992;2022-07-10T02:04:21;11.90;99.90
14409;DHT22;7289;50.706;4.992;2022-07-10T02:07:06;11.90;99.90
14409;DHT22;7289;50.706;4.992;2022-07-10T02:09:35;11.80;99.90
14409;DHT22;7289;50.706;4.992;2022-07-10T02:12:06;11.80;99.90
14409;DHT22;7289;50.706;4.992;2022-07-10T02:14:34;11.80;99.90
14409;DHT22;7289;50.706;4.992;2022-07-10T02:17:03;11.80;99.90
14409;DHT22;7289;50.706;4.992;2022-07-10T02:19:32;11.70;99.90
14409;DHT22;7289;50.706;4.992;2022-07-10T02:22:00;11.70;99.90
14409;DHT22;7289;50.706;4.992;2022-07-10T02:24:29;11.60;99.90
14409;DHT22;7289;50.706;4.992;2022-07-10T02:26:57;11.70;99.90
14409;DHT22;7289;50.706;4.992;2022-07-10T02:29:26;11.70;99.90
14409;DHT22;7289;50.706;4.992;2022-07-10T02:31:55;11.60;99.90
14409;DHT22;7289;50.706;4.992;2022-07-10T02:34:23;11.60;99.90
14409;DHT22;7289;50.706;4.992;2022-07-10T02:36:52;11.50;99.90
14409;DHT22;7289;50.706;4.992;2022-07-10T02:39:21;11.50;99.90
14409;DHT22;7289;50.706;4.992;2022-07-10T02:41:50;11.40;99.90
14409;DHT22;7289;50.706;4.992;2022-07-10T02:44:19;11.40;99.90
14409;DHT22;7289;50.706;4.992;2022-07-10T02:46:48;11.40;99.90
14409;DHT22;7289;50.706;4.992;2022-07-10T02:49:17;11.40;99.90
14409;DHT22;7289;50.706;4.992;2022-07-10T02:51:45;11.40;99.90
14409;DHT22;7289;50.706;4.992;2022-07-10T02:54:13;11.40;99.90
14409;DHT22;7289;50.706;4.992;2022-07-10T02:56:42;11.40;99.90
14409;DHT22;7289;50.706;4.992;2022-07-10T02:59:10;11.30;99.90
14409;DHT22;7289;50.706;4.992;2022-07-10T03:01:38;11.30;99.90
14409;DHT22;7289;50.706;4.992;2022-07-10T03:04:08;11.30;99.90
14409;DHT22;7289;50.706;4.992;2022-07-10T03:06:36;11.30;99.90
14409;DHT22;7289;50.706;4.992;2022-07-10T03:09:04;11.20;99.90
14409;DHT22;7289;50.706;4.992;2022-07-10T03:11:33;11.20;99.90
14409;DHT22;7289;50.706;4.992;2022-07-10T03:14:01;11.20;99.90
14409;DHT22;7289;50.706;4.992;2022-07-10T03:16:29;11.10;99.90
14409;DHT22;7289;50.706;4.992;2022-07-10T03:18:58;11.10;99.90
14409;DHT22;7289;50.706;4.992;2022-07-10T03:21:27;11.00;99.90
14409;DHT22;7289;50.706;4.992;2022-07-10T03:23:57;11.00;99.90
14409;DHT22;7289;50.706;4.992;2022-07-10T03:26:25;11.10;99.90
14409;DHT22;7289;50.706;4.992;2022-07-10T03:28:53;11.00;99.90
14409;DHT22;7289;50.706;4.992;2022-07-10T03:31:22;11.00;99.90
14409;DHT22;7289;50.706;4.992;2022-07-10T03:33:50;11.00;99.90
14409;DHT22;7289;50.706;4.992;2022-07-10T03:36:19;11.00;99.90
14409;DHT22;7289;50.706;4.992;2022-07-10T03:38:49;11.00;99.90
14409;DHT22;7289;50.706;4.992;2022-07-10T03:41:17;11.00;99.90
14409;DHT22;7289;50.706;4.992;2022-07-10T03:43:45;10.90;99.90
14409;DHT22;7289;50.706;4.992;2022-07-10T03:46:14;10.90;99.90
14409;DHT22;7289;50.706;4.992;2022-07-10T03:48:42;10.90;99.90
14409;DHT22;7289;50.706;4.992;2022-07-10T03:51:10;11.00;99.90
14409;DHT22;7289;50.706;4.992;2022-07-10T03:53:38;10.90;99.90
14409;DHT22;7289;50.706;4.992;2022-07-10T03:56:08;11.00;99.90
14409;DHT22;7289;50.706;4.992;2022-07-10T03:58:56;11.00;99.90
14409;DHT22;7289;50.706;4.992;2022-07-10T04:01:24;11.00;99.90
14409;DHT22;7289;50.706;4.992;2022-07-10T04:03:52;11.00;99.90
14409;DHT22;7289;50.706;4.992;2022-07-10T04:06:20;11.10;99.90
14409;DHT22;7289;50.706;4.992;2022-07-10T04:08:49;11.10;99.90
14409;DHT22;7289;50.706;4.992;2022-07-10T04:11:18;11.10;99.90
14409;DHT22;7289;50.706;4.992;2022-07-10T04:13:47;11.10;99.90
14409;DHT22;7289;50.706;4.992;2022-07-10T04:16:15;11.10;99.90
14409;DHT22;7289;50.706;4.992;2022-07-10T04:18:44;11.10;99.90
14409;DHT22;7289;50.706;4.992;2022-07-10T04:21:13;11.20;99.90
14409;DHT22;7289;50.706;4.992;2022-07-10T04:23:41;11.30;99.90
14409;DHT22;7289;50.706;4.992;2022-07-10T04:26:09;11.30;99.90
14409;DHT22;7289;50.706;4.992;2022-07-10T04:28:39;11.30;99.90
14409;DHT22;7289;50.706;4.992;2022-07-10T04:31:08;11.30;99.90
14409;DHT22;7289;50.706;4.992;2022-07-10T04:33:36;11.30;99.90
14409;DHT22;7289;50.706;4.992;2022-07-10T04:36:05;11.40;99.90
14409;DHT22;7289;50.706;4.992;2022-07-10T04:38:33;11.40;99.90
14409;DHT22;7289;50.706;4.992;2022-07-10T04:41:02;11.50;99.90
14409;DHT22;7289;50.706;4.992;2022-07-10T04:43:30;11.60;99.90
14409;DHT22;7289;50.706;4.992;2022-07-10T04:46:00;11.60;99.90
14409;DHT22;7289;50.706;4.992;2022-07-10T04:48:28;11.70;99.90
14409;DHT22;7289;50.706;4.992;2022-07-10T04:50:56;11.70;99.90
14409;DHT22;7289;50.706;4.992;2022-07-10T04:53:25;11.80;99.90
14409;DHT22;7289;50.706;4.992;2022-07-10T04:55:53;11.90;99.90
14409;DHT22;7289;50.706;4.992;2022-07-10T04:58:21;11.90;99.90
14409;DHT22;7289;50.706;4.992;2022-07-10T05:00:49;12.00;99.90
14409;DHT22;7289;50.706;4.992;2022-07-10T05:03:19;12.00;99.90
14409;DHT22;7289;50.706;4.992;2022-07-10T05:05:47;12.10;99.90
14409;DHT22;7289;50.706;4.992;2022-07-10T05:08:16;12.20;99.90
14409;DHT22;7289;50.706;4.992;2022-07-10T05:10:44;12.30;99.90
14409;DHT22;7289;50.706;4.992;2022-07-10T05:13:12;12.40;99.90
14409;DHT22;7289;50.706;4.992;2022-07-10T05:15:41;12.70;99.90
14409;DHT22;7289;50.706;4.992;2022-07-10T05:18:09;12.80;99.90
14409;DHT22;7289;50.706;4.992;2022-07-10T05:20:39;13.00;99.90
14409;DHT22;7289;50.706;4.992;2022-07-10T05:23:10;13.20;99.90
14409;DHT22;7289;50.706;4.992;2022-07-10T05:25:38;13.50;99.90
14409;DHT22;7289;50.706;4.992;2022-07-10T05:28:07;13.80;99.90
14409;DHT22;7289;50.706;4.992;2022-07-10T05:30:36;14.20;99.90
14409;DHT22;7289;50.706;4.992;2022-07-10T05:33:04;14.40;99.90
14409;DHT22;7289;50.706;4.992;2022-07-10T05:35:32;14.60;99.90
14409;DHT22;7289;50.706;4.992;2022-07-10T05:38:02;14.60;99.90
14409;DHT22;7289;50.706;4.992;2022-07-10T05:40:30;14.80;99.90
14409;DHT22;7289;50.706;4.992;2022-07-10T05:42:58;15.10;99.90
14409;DHT22;7289;50.706;4.992;2022-07-10T05:45:27;15.20;99.90
14409;DHT22;7289;50.706;4.992;2022-07-10T05:47:55;15.40;99.90
14409;DHT22;7289;50.706;4.992;2022-07-10T05:50:24;15.50;99.90
14409;DHT22;7289;50.706;4.992;2022-07-10T05:52:52;15.60;99.90
14409;DHT22;7289;50.706;4.992;2022-07-10T05:55:22;15.60;99.90
14409;DHT22;7289;50.706;4.992;2022-07-10T05:57:50;15.70;99.90
14409;DHT22;7289;50.706;4.992;2022-07-10T06:00:19;15.80;99.90
14409;DHT22;7289;50.706;4.992;2022-07-10T06:02:47;15.80;99.90
14409;DHT22;7289;50.706;4.992;2022-07-10T06:05:16;15.90;99.90
14409;DHT22;7289;50.706;4.992;2022-07-10T06:07:44;16.10;99.90
14409;DHT22;7289;50.706;4.992;2022-07-10T06:10:12;16.20;99.90
14409;DHT22;7289;50.706;4.992;2022-07-10T06:12:42;16.10;99.90
14409;DHT22;7289;50.706;4.992;2022-07-10T06:15:11;16.30;99.90
14409;DHT22;7289;50.706;4.992;2022-07-10T06:17:45;16.40;99.80
14409;DHT22;7289;50.706;4.992;2022-07-10T06:20:13;16.70;99.70
14409;DHT22;7289;50.706;4.992;2022-07-10T06:22:41;16.90;98.60
14409;DHT22;7289;50.706;4.992;2022-07-10T06:25:10;17.00;99.00
14409;DHT22;7289;50.706;4.992;2022-07-10T06:27:39;16.70;98.90
14409;DHT22;7289;50.706;4.992;2022-07-10T06:30:10;16.80;98.70
14409;DHT22;7289;50.706;4.992;2022-07-10T06:32:38;17.00;98.60
14409;DHT22;7289;50.706;4.992;2022-07-10T06:35:07;17.30;98.10
14409;DHT22;7289;50.706;4.992;2022-07-10T06:37:36;17.60;97.30
14409;DHT22;7289;50.706;4.992;2022-07-10T06:40:05;17.70;97.10
14409;DHT22;7289;50.706;4.992;2022-07-10T06:42:34;17.90;96.80
14409;DHT22;7289;50.706;4.992;2022-07-10T06:45:12;18.40;96.10
14409;DHT22;7289;50.706;4.992;2022-07-10T06:47:40;18.80;95.40
14409;DHT22;7289;50.706;4.992;2022-07-10T06:50:25;19.20;94.20
14409;DHT22;7289;50.706;4.992;2022-07-10T06:52:53;19.10;95.30
14409;DHT22;7289;50.706;4.992;2022-07-10T06:55:22;19.20;93.70
14409;DHT22;7289;50.706;4.992;2022-07-10T06:57:51;19.10;93.70
14409;DHT22;7289;50.706;4.992;2022-07-10T07:00:21;18.90;94.10
14409;DHT22;7289;50.706;4.992;2022-07-10T07:02:49;18.90;93.90
14409;DHT22;7289;50.706;4.992;2022-07-10T07:05:18;18.90;93.60
14409;DHT22;7289;50.706;4.992;2022-07-10T07:07:46;18.60;93.80
14409;DHT22;7289;50.706;4.992;2022-07-10T07:10:15;18.30;94.20
14409;DHT22;7289;50.706;4.992;2022-07-10T07:12:43;18.00;94.90
14409;DHT22;7289;50.706;4.992;2022-07-10T07:15:11;17.90;95.60
14409;DHT22;7289;50.706;4.992;2022-07-10T07:17:43;17.70;95.30
14409;DHT22;7289;50.706;4.992;2022-07-10T07:20:39;17.90;95.50
14409;DHT22;7289;50.706;4.992;2022-07-10T07:23:33;18.30;95.50
14409;DHT22;7289;50.706;4.992;2022-07-10T07:26:01;18.50;94.60
14409;DHT22;7289;50.706;4.992;2022-07-10T07:28:29;18.90;94.20
14409;DHT22;7289;50.706;4.992;2022-07-10T07:30:58;19.20;93.30
14409;DHT22;7289;50.706;4.992;2022-07-10T07:33:28;19.60;92.60
14409;DHT22;7289;50.706;4.992;2022-07-10T07:35:56;19.90;92.30
14409;DHT22;7289;50.706;4.992;2022-07-10T07:38:24;20.10;91.80
14409;DHT22;7289;50.706;4.992;2022-07-10T07:40:52;20.40;91.10
14409;DHT22;7289;50.706;4.992;2022-07-10T07:43:21;20.30;90.70
14409;DHT22;7289;50.706;4.992;2022-07-10T07:45:49;20.60;90.80
14409;DHT22;7289;50.706;4.992;2022-07-10T07:48:17;21.00;90.20
14409;DHT22;7289;50.706;4.992;2022-07-10T07:50:47;21.20;89.30
14409;DHT22;7289;50.706;4.992;2022-07-10T07:53:15;21.00;90.40
14409;DHT22;7289;50.706;4.992;2022-07-10T07:55:44;20.90;90.50
14409;DHT22;7289;50.706;4.992;2022-07-10T07:58:12;20.70;90.40
14409;DHT22;7289;50.706;4.992;2022-07-10T08:00:40;20.20;90.60
14409;DHT22;7289;50.706;4.992;2022-07-10T08:03:09;19.80;90.60
14409;DHT22;7289;50.706;4.992;2022-07-10T08:05:37;19.80;90.80
14409;DHT22;7289;50.706;4.992;2022-07-10T08:08:07;19.80;91.30
14409;DHT22;7289;50.706;4.992;2022-07-10T08:10:37;19.80;90.70
14409;DHT22;7289;50.706;4.992;2022-07-10T08:13:11;19.70;91.10
14409;DHT22;7289;50.706;4.992;2022-07-10T08:15:40;19.90;90.50
14409;DHT22;7289;50.706;4.992;2022-07-10T08:18:08;19.90;91.40
14409;DHT22;7289;50.706;4.992;2022-07-10T08:20:37;20.00;90.80
14409;DHT22;7289;50.706;4.992;2022-07-10T08:23:06;20.20;89.90
14409;DHT22;7289;50.706;4.992;2022-07-10T08:25:35;20.20;91.10
14409;DHT22;7289;50.706;4.992;2022-07-10T08:28:04;20.00;91.00
14409;DHT22;7289;50.706;4.992;2022-07-10T08:30:33;20.30;91.20
14409;DHT22;7289;50.706;4.992;2022-07-10T08:33:01;20.20;90.40
14409;DHT22;7289;50.706;4.992;2022-07-10T08:35:30;20.20;90.00
14409;DHT22;7289;50.706;4.992;2022-07-10T08:37:58;20.20;89.30
14409;DHT22;7289;50.706;4.992;2022-07-10T08:40:34;20.40;89.30
14409;DHT22;7289;50.706;4.992;2022-07-10T08:43:04;20.30;89.40
14409;DHT22;7289;50.706;4.992;2022-07-10T08:45:33;20.60;89.00
14409;DHT22;7289;50.706;4.992;2022-07-10T08:48:03;20.80;90.00
14409;DHT22;7289;50.706;4.992;2022-07-10T08:50:34;20.90;88.40
14409;DHT22;7289;50.706;4.992;2022-07-10T08:53:09;20.90;87.40
14409;DHT22;7289;50.706;4.992;2022-07-10T08:55:39;20.70;89.10
14409;DHT22;7289;50.706;4.992;2022-07-10T08:58:08;20.70;87.30
14409;DHT22;7289;50.706;4.992;2022-07-10T09:00:37;20.80;86.50
14409;DHT22;7289;50.706;4.992;2022-07-10T09:03:05;20.90;88.30
14409;DHT22;7289;50.706;4.992;2022-07-10T09:05:33;21.00;87.80
14409;DHT22;7289;50.706;4.992;2022-07-10T09:08:02;20.90;88.10
14409;DHT22;7289;50.706;4.992;2022-07-10T09:10:30;21.00;87.20
14409;DHT22;7289;50.706;4.992;2022-07-10T09:13:01;21.00;88.00
14409;DHT22;7289;50.706;4.992;2022-07-10T09:15:31;21.30;86.70
14409;DHT22;7289;50.706;4.992;2022-07-10T09:18:01;22.00;87.70
14409;DHT22;7289;50.706;4.992;2022-07-10T09:20:32;22.90;86.40
14409;DHT22;7289;50.706;4.992;2022-07-10T09:23:14;23.40;81.50
14409;DHT22;7289;50.706;4.992;2022-07-10T09:25:43;23.30;80.20
14409;DHT22;7289;50.706;4.992;2022-07-10T09:28:16;23.30;80.00
14409;DHT22;7289;50.706;4.992;2022-07-10T09:30:46;23.70;79.70
14409;DHT22;7289;50.706;4.992;2022-07-10T09:33:20;23.70;79.00
14409;DHT22;7289;50.706;4.992;2022-07-10T09:36:02;23.20;81.80
14409;DHT22;7289;50.706;4.992;2022-07-10T09:38:54;23.40;80.20
14409;DHT22;7289;50.706;4.992;2022-07-10T09:41:28;23.20;80.30
14409;DHT22;7289;50.706;4.992;2022-07-10T09:44:00;22.70;80.90
14409;DHT22;7289;50.706;4.992;2022-07-10T09:46:32;22.60;81.50
14409;DHT22;7289;50.706;4.992;2022-07-10T09:49:06;23.00;79.90
14409;DHT22;7289;50.706;4.992;2022-07-10T09:51:36;23.80;80.70
14409;DHT22;7289;50.706;4.992;2022-07-10T09:54:14;24.10;79.20
14409;DHT22;7289;50.706;4.992;2022-07-10T09:56:43;24.10;78.30
14409;DHT22;7289;50.706;4.992;2022-07-10T09:59:16;24.00;77.90
14409;DHT22;7289;50.706;4.992;2022-07-10T10:01:47;24.10;78.60
14409;DHT22;7289;50.706;4.992;2022-07-10T10:04:16;23.60;77.70
14409;DHT22;7289;50.706;4.992;2022-07-10T10:06:51;23.70;80.20
14409;DHT22;7289;50.706;4.992;2022-07-10T10:09:23;23.90;79.70
14409;DHT22;7289;50.706;4.992;2022-07-10T10:11:56;24.10;78.20
14409;DHT22;7289;50.706;4.992;2022-07-10T10:14:27;23.90;77.10
14409;DHT22;7289;50.706;4.992;2022-07-10T10:16:56;23.60;78.60
14409;DHT22;7289;50.706;4.992;2022-07-10T10:19:26;24.20;76.80
14409;DHT22;7289;50.706;4.992;2022-07-10T10:22:12;24.60;77.60
14409;DHT22;7289;50.706;4.992;2022-07-10T10:24:42;24.80;75.80
14409;DHT22;7289;50.706;4.992;2022-07-10T10:27:13;25.10;74.50
14409;DHT22;7289;50.706;4.992;2022-07-10T10:29:45;24.70;74.30
14409;DHT22;7289;50.706;4.992;2022-07-10T10:32:14;25.00;74.00
14409;DHT22;7289;50.706;4.992;2022-07-10T10:34:45;25.70;73.70
14409;DHT22;7289;50.706;4.992;2022-07-10T10:37:33;25.60;72.00
14409;DHT22;7289;50.706;4.992;2022-07-10T10:40:04;25.70;74.20
14409;DHT22;7289;50.706;4.992;2022-07-10T10:42:35;25.90;73.30
14409;DHT22;7289;50.706;4.992;2022-07-10T10:45:31;26.00;73.90
14409;DHT22;7289;50.706;4.992;2022-07-10T10:48:01;26.00;72.10
14409;DHT22;7289;50.706;4.992;2022-07-10T10:50:50;25.20;72.80
14409;DHT22;7289;50.706;4.992;2022-07-10T10:53:20;25.50;73.40
14409;DHT22;7289;50.706;4.992;2022-07-10T10:56:24;25.30;73.80
14409;DHT22;7289;50.706;4.992;2022-07-10T10:58:52;25.10;73.70
14409;DHT22;7289;50.706;4.992;2022-07-10T11:01:28;25.10;73.70
14409;DHT22;7289;50.706;4.992;2022-07-10T11:04:15;25.30;75.60
14409;DHT22;7289;50.706;4.992;2022-07-10T11:06:48;25.50;74.60
14409;DHT22;7289;50.706;4.992;2022-07-10T11:09:24;25.20;73.80
14409;DHT22;7289;50.706;4.992;2022-07-10T11:12:03;25.00;75.20
14409;DHT22;7289;50.706;4.992;2022-07-10T11:14:34;24.50;76.00
14409;DHT22;7289;50.706;4.992;2022-07-10T11:17:06;24.20;76.90
14409;DHT22;7289;50.706;4.992;2022-07-10T11:19:35;23.70;78.20
14409;DHT22;7289;50.706;4.992;2022-07-10T11:25:24;23.80;77.60
14409;DHT22;7289;50.706;4.992;2022-07-10T11:28:05;23.70;80.10
14409;DHT22;7289;50.706;4.992;2022-07-10T11:30:46;24.10;79.10
14409;DHT22;7289;50.706;4.992;2022-07-10T11:33:17;24.40;78.50
14409;DHT22;7289;50.706;4.992;2022-07-10T11:35:48;24.70;79.50
14409;DHT22;7289;50.706;4.992;2022-07-10T11:38:22;24.90;76.90
14409;DHT22;7289;50.706;4.992;2022-07-10T11:40:50;25.30;75.90
14409;DHT22;7289;50.706;4.992;2022-07-10T11:43:20;25.70;75.40
14409;DHT22;7289;50.706;4.992;2022-07-10T11:45:51;25.90;74.60
14409;DHT22;7289;50.706;4.992;2022-07-10T11:48:22;25.10;75.80
14409;DHT22;7289;50.706;4.992;2022-07-10T11:50:51;25.20;77.40
14409;DHT22;7289;50.706;4.992;2022-07-10T11:53:23;25.80;77.80
14409;DHT22;7289;50.706;4.992;2022-07-10T11:55:52;26.60;74.80
14409;DHT22;7289;50.706;4.992;2022-07-10T11:58:21;27.10;73.90
14409;DHT22;7289;50.706;4.992;2022-07-10T12:01:00;26.80;71.70
14409;DHT22;7289;50.706;4.992;2022-07-10T12:03:33;26.70;73.90
14409;DHT22;7289;50.706;4.992;2022-07-10T12:06:03;26.10;72.80
14409;DHT22;7289;50.706;4.992;2022-07-10T12:08:42;26.00;74.30
14409;DHT22;7289;50.706;4.992;2022-07-10T12:11:12;26.40;75.00
14409;DHT22;7289;50.706;4.992;2022-07-10T12:13:41;26.60;72.00
14409;DHT22;7289;50.706;4.992;2022-07-10T12:16:09;26.80;73.10
14409;DHT22;7289;50.706;4.992;2022-07-10T12:18:39;26.50;75.60
14409;DHT22;7289;50.706;4.992;2022-07-10T12:21:12;26.90;75.90
14409;DHT22;7289;50.706;4.992;2022-07-10T12:23:42;27.20;74.30
14409;DHT22;7289;50.706;4.992;2022-07-10T12:26:12;26.90;71.20
14409;DHT22;7289;50.706;4.992;2022-07-10T12:28:54;26.30;74.00
14409;DHT22;7289;50.706;4.992;2022-07-10T12:31:27;26.80;72.50
14409;DHT22;7289;50.706;4.992;2022-07-10T12:33:59;26.60;73.20
14409;DHT22;7289;50.706;4.992;2022-07-10T12:36:42;26.80;72.50
14409;DHT22;7289;50.706;4.992;2022-07-10T12:39:12;26.70;71.70
14409;DHT22;7289;50.706;4.992;2022-07-10T12:41:54;26.90;74.50
14409;DHT22;7289;50.706;4.992;2022-07-10T12:44:34;27.70;72.90
14409;DHT22;7289;50.706;4.992;2022-07-10T12:47:04;27.80;70.30
14409;DHT22;7289;50.706;4.992;2022-07-10T12:49:54;26.90;71.30
14409;DHT22;7289;50.706;4.992;2022-07-10T12:52:25;26.70;74.10
14409;DHT22;7289;50.706;4.992;2022-07-10T12:55:11;26.90;71.70
14409;DHT22;7289;50.706;4.992;2022-07-10T12:57:49;26.90;71.40
14409;DHT22;7289;50.706;4.992;2022-07-10T13:00:19;27.20;71.80
14409;DHT22;7289;50.706;4.992;2022-07-10T13:02:48;27.30;70.50
14409;DHT22;7289;50.706;4.992;2022-07-10T13:05:28;27.10;70.70
14409;DHT22;7289;50.706;4.992;2022-07-10T13:08:10;26.90;71.90
14409;DHT22;7289;50.706;4.992;2022-07-10T13:10:40;26.60;72.90
14409;DHT22;7289;50.706;4.992;2022-07-10T13:13:09;26.10;73.50
14409;DHT22;7289;50.706;4.992;2022-07-10T13:15:38;25.90;74.10
14409;DHT22;7289;50.706;4.992;2022-07-10T13:18:13;25.90;74.90
14409;DHT22;7289;50.706;4.992;2022-07-10T13:20:43;25.50;74.50
14409;DHT22;7289;50.706;4.992;2022-07-10T13:23:12;25.40;75.10
14409;DHT22;7289;50.706;4.992;2022-07-10T13:25:40;25.00;77.10
14409;DHT22;7289;50.706;4.992;2022-07-10T13:28:10;25.00;76.20
14409;DHT22;7289;50.706;4.992;2022-07-10T13:30:39;24.70;79.80
14409;DHT22;7289;50.706;4.992;2022-07-10T13:33:07;24.80;76.10
14409;DHT22;7289;50.706;4.992;2022-07-10T13:35:36;24.80;76.30
14409;DHT22;7289;50.706;4.992;2022-07-10T13:38:06;25.10;76.40
14409;DHT22;7289;50.706;4.992;2022-07-10T13:40:42;25.50;76.30
14409;DHT22;7289;50.706;4.992;2022-07-10T13:43:11;25.80;76.40
14409;DHT22;7289;50.706;4.992;2022-07-10T13:45:40;25.70;73.90
14409;DHT22;7289;50.706;4.992;2022-07-10T13:48:11;25.40;74.30
14409;DHT22;7289;50.706;4.992;2022-07-10T13:50:40;25.10;75.40
14409;DHT22;7289;50.706;4.992;2022-07-10T13:53:09;25.50;75.70
14409;DHT22;7289;50.706;4.992;2022-07-10T13:55:38;25.60;75.10
14409;DHT22;7289;50.706;4.992;2022-07-10T13:58:06;26.10;75.00
14409;DHT22;7289;50.706;4.992;2022-07-10T14:00:36;26.40;73.60
14409;DHT22;7289;50.706;4.992;2022-07-10T14:03:04;26.30;72.70
14409;DHT22;7289;50.706;4.992;2022-07-10T14:05:34;26.20;73.20
14409;DHT22;7289;50.706;4.992;2022-07-10T14:08:02;26.00;73.30
14409;DHT22;7289;50.706;4.992;2022-07-10T14:10:32;26.10;73.10
14409;DHT22;7289;50.706;4.992;2022-07-10T14:13:00;26.10;74.60
14409;DHT22;7289;50.706;4.992;2022-07-10T14:15:37;26.20;73.90
14409;DHT22;7289;50.706;4.992;2022-07-10T14:18:05;26.20;75.00
14409;DHT22;7289;50.706;4.992;2022-07-10T14:20:34;26.10;73.50
14409;DHT22;7289;50.706;4.992;2022-07-10T14:23:16;26.20;73.60
14409;DHT22;7289;50.706;4.992;2022-07-10T14:25:46;26.30;73.80
14409;DHT22;7289;50.706;4.992;2022-07-10T14:28:15;26.50;73.00
14409;DHT22;7289;50.706;4.992;2022-07-10T14:30:43;26.40;74.20
14409;DHT22;7289;50.706;4.992;2022-07-10T14:33:18;26.60;72.60
14409;DHT22;7289;50.706;4.992;2022-07-10T14:35:46;26.30;74.40
14409;DHT22;7289;50.706;4.992;2022-07-10T14:38:14;26.20;73.10
14409;DHT22;7289;50.706;4.992;2022-07-10T14:40:43;26.40;73.40
14409;DHT22;7289;50.706;4.992;2022-07-10T14:43:12;26.50;73.90
14409;DHT22;7289;50.706;4.992;2022-07-10T14:45:41;26.50;73.90
14409;DHT22;7289;50.706;4.992;2022-07-10T14:48:16;26.80;73.20
14409;DHT22;7289;50.706;4.992;2022-07-10T14:50:45;26.70;72.60
14409;DHT22;7289;50.706;4.992;2022-07-10T14:53:13;26.50;73.90
14409;DHT22;7289;50.706;4.992;2022-07-10T14:55:41;26.40;73.00
14409;DHT22;7289;50.706;4.992;2022-07-10T14:58:11;26.30;75.70
14409;DHT22;7289;50.706;4.992;2022-07-10T15:00:39;26.20;75.30
14409;DHT22;7289;50.706;4.992;2022-07-10T15:03:07;26.20;74.30
14409;DHT22;7289;50.706;4.992;2022-07-10T15:05:36;26.00;73.80
14409;DHT22;7289;50.706;4.992;2022-07-10T15:08:04;25.80;73.60
14409;DHT22;7289;50.706;4.992;2022-07-10T15:10:32;25.60;75.40
14409;DHT22;7289;50.706;4.992;2022-07-10T15:13:01;25.80;74.90
14409;DHT22;7289;50.706;4.992;2022-07-10T15:15:33;26.30;74.10
14409;DHT22;7289;50.706;4.992;2022-07-10T15:18:01;26.50;74.20
14409;DHT22;7289;50.706;4.992;2022-07-10T15:20:30;26.60;74.10
14409;DHT22;7289;50.706;4.992;2022-07-10T15:22:58;26.10;73.00
14409;DHT22;7289;50.706;4.992;2022-07-10T15:25:26;26.00;74.10
14409;DHT22;7289;50.706;4.992;2022-07-10T15:27:55;25.90;75.50
14409;DHT22;7289;50.706;4.992;2022-07-10T15:30:23;25.80;74.20
14409;DHT22;7289;50.706;4.992;2022-07-10T15:32:53;25.90;75.30
14409;DHT22;7289;50.706;4.992;2022-07-10T15:35:21;25.80;75.40
14409;DHT22;7289;50.706;4.992;2022-07-10T15:37:51;25.60;74.80
14409;DHT22;7289;50.706;4.992;2022-07-10T15:40:25;25.30;75.00
14409;DHT22;7289;50.706;4.992;2022-07-10T15:42:54;25.10;76.50
14409;DHT22;7289;50.706;4.992;2022-07-10T15:45:23;25.00;76.40
14409;DHT22;7289;50.706;4.992;2022-07-10T15:47:53;25.20;76.70
14409;DHT22;7289;50.706;4.992;2022-07-10T15:50:21;25.40;76.90
14409;DHT22;7289;50.706;4.992;2022-07-10T15:52:50;25.60;77.10
14409;DHT22;7289;50.706;4.992;2022-07-10T15:55:18;25.80;75.90
14409;DHT22;7289;50.706;4.992;2022-07-10T15:57:47;25.30;76.20
14409;DHT22;7289;50.706;4.992;2022-07-10T16:00:15;25.50;76.20
14409;DHT22;7289;50.706;4.992;2022-07-10T16:02:43;25.70;76.80
14409;DHT22;7289;50.706;4.992;2022-07-10T16:05:13;25.50;76.10
14409;DHT22;7289;50.706;4.992;2022-07-10T16:07:41;25.10;76.60